Port Vila Bauerfield Airport Port Vila VU
ICAO: NVVV
IATA:
Category: Medium
Scheduled Services:

Elevation: 70 ft
TransAlt. 11000 ft.

Airport Communications:
FLT SVC:120.7
FLT SVC:1133.9
CTAF:120.7
TWR:120.7
TWR:1133.9

NVVV Zoom In..

If you have problems with the map follow the link
https://www.worldairports.se/pages/airport.php?
ICAO=NVVV

Runways:

(A) RW 11 length 8530 ft width 148 ft
LOC 110.70 / hdg 106

(B) RW 29 length 8530 ft width 148 ft
LOC 110.70 / hdg 286

Location; NVVV
Day. 21 / Time. 10.00 Zulu
* QNH: 1012
* Temperature: 22° c. 71.6°f.
* Wind from: 070° Speed 02 kn.
Dewpoint: 20° c.
Visibility: 10 km or more.
Clouds: Few 2000 ft.

NVVV 211000Z 07002KT 9999 FEW020 22/20 Q1012


Wind From 070°
Speed 02 kn.

 
 
jpsmedia worldairports.se 2020   terms of use